CheckWX is a tool to help pilots better visualize weather data.  It is not intended as a substitute for an official pre-flight weather briefing.

01:57:24 UTC

KCFV METAR
Coffeyville Municipal Airport
Coffeyville, Kansas, USA
Current

1 hour ago

KCFV 100052Z AUTO 34013KT 10SM CLR 00/M09 A3010 RMK AO2 SLP198 T00001089
Observed
Dec-10 @ 00:52 UTC
Wind
  • 340° at 13 KTS
Visibility
10 SM
Flight Rules
VFR
Cloud Levels
  • Clear skies
Temperature
C / 32°F
Dewpoint
-9°C / 16°F
Humidity
51%
Altimeter
30.1" Hg
Pressure
1019.32 hPa
Previous

2 hours ago

KCFV 092352Z AUTO 33012G20KT 10SM CLR 01/M08 A3006 RMK AO2 SLP183 T00061083 10050 20006 51042
Observed
Dec-9 @ 23:52 UTC
Wind
  • 330° at 12 KTS
  • Gusting to 20 KTS
Visibility
10 SM
Flight Rules
VFR
Cloud Levels
  • Clear skies
Temperature
C / 34°F
Dewpoint
-8°C / 18°F
Humidity
51%
Altimeter
30.06" Hg
Pressure
1017.92 hPa
Previous

3 hours ago

KCFV 092252Z AUTO 34011G22KT 10SM CLR 02/M08 A3002 RMK AO2 SLP169 T00171078
Observed
Dec-9 @ 22:52 UTC
Wind
  • 340° at 11 KTS
  • Gusting to 22 KTS
Visibility
10 SM
Flight Rules
VFR
Cloud Levels
  • Clear skies
Temperature
C / 36°F
Dewpoint
-8°C / 18°F
Humidity
48%
Altimeter
30.02" Hg
Pressure
1016.62 hPa